createdAt,value
2019-05-29T00:00:15.429Z,11.80
2019-05-29T00:01:19.861Z,11.90
2019-05-29T00:02:15.590Z,11.91
2019-05-29T00:06:15.545Z,11.79
2019-05-29T00:09:15.296Z,11.80
2019-05-29T00:12:19.664Z,11.70
2019-05-29T00:13:15.929Z,11.76
2019-05-29T00:14:25.797Z,11.80
2019-05-29T00:16:16.629Z,11.80
2019-05-29T00:18:15.576Z,11.82
2019-05-29T00:19:16.627Z,11.78
2019-05-29T00:21:15.661Z,11.75
2019-05-29T00:24:15.955Z,11.70
2019-05-29T00:25:16.690Z,11.67
2019-05-29T00:31:16.167Z,11.65
2019-05-29T00:32:17.193Z,11.67
2019-05-29T00:33:16.033Z,11.65
2019-05-29T00:34:23.540Z,11.58
2019-05-29T00:37:16.700Z,11.51
2019-05-29T00:38:16.788Z,11.49
2019-05-29T00:39:17.027Z,11.52
2019-05-29T00:42:17.457Z,11.46
2019-05-29T00:45:17.737Z,11.43
2019-05-29T00:51:17.237Z,11.52
2019-05-29T00:52:16.676Z,11.47
2019-05-29T00:53:16.613Z,11.51
2019-05-29T00:56:18.835Z,11.44
2019-05-29T00:57:17.090Z,11.46
2019-05-29T01:02:17.885Z,11.43
2019-05-29T01:03:19.964Z,11.44
2019-05-29T01:12:12.772Z,11.22
2019-05-29T01:13:13.042Z,11.19
2019-05-29T01:14:13.014Z,11.22
2019-05-29T01:22:02.152Z,11.19
2019-05-29T01:24:02.211Z,11.22
2019-05-29T01:25:02.058Z,11.21
2019-05-29T01:26:02.374Z,11.24
2019-05-29T01:27:05.813Z,11.37
2019-05-29T01:29:00.193Z,11.36
2019-05-29T01:29:59.943Z,11.27
2019-05-29T01:33:03.367Z,11.32
2019-05-29T01:34:59.868Z,11.25
2019-05-29T01:35:59.899Z,11.32
2019-05-29T01:36:59.928Z,11.33
2019-05-29T01:38:00.191Z,11.37
2019-05-29T01:39:00.217Z,11.36
2019-05-29T01:40:00.651Z,11.43
2019-05-29T01:44:00.480Z,11.37
2019-05-29T01:45:07.800Z,11.35
2019-05-29T01:49:02.214Z,11.44
2019-05-29T01:58:00.587Z,11.46
2019-05-29T02:13:01.647Z,11.46
2019-05-29T02:16:18.528Z,11.47
2019-05-29T02:17:01.230Z,11.39
2019-05-29T02:18:02.828Z,11.40
2019-05-29T02:28:54.713Z,11.60
2019-05-29T02:29:54.945Z,11.65
2019-05-29T02:30:54.797Z,11.64
2019-05-29T02:31:55.033Z,11.69
2019-05-29T02:36:55.435Z,11.75
2019-05-29T02:42:55.158Z,11.85
2019-05-29T02:43:55.396Z,11.79
2019-05-29T02:45:55.393Z,11.79
2019-05-29T02:48:56.671Z,11.76
2019-05-29T02:49:56.490Z,11.75
2019-05-29T02:52:55.464Z,11.79
2019-05-29T02:53:55.900Z,11.82
2019-05-29T02:54:55.933Z,11.78
2019-05-29T03:02:56.779Z,11.79
2019-05-29T03:03:56.606Z,11.80
2019-05-29T03:04:55.808Z,11.85
2019-05-29T03:05:55.858Z,11.79
2019-05-29T03:06:56.602Z,11.86
2019-05-29T03:08:56.435Z,11.75
2019-05-29T03:11:59.865Z,11.78
2019-05-29T03:12:56.271Z,11.86
2019-05-29T03:13:56.608Z,11.85
2019-05-29T03:14:57.456Z,11.76
2019-05-29T03:16:09.487Z,11.91
2019-05-29T03:18:57.382Z,11.90
2019-05-29T03:24:56.435Z,11.78
2019-05-29T03:25:56.750Z,11.79
2019-05-29T03:26:58.623Z,11.80
2019-05-29T03:27:58.832Z,11.83
2019-05-29T03:39:02.093Z,11.88
2019-05-29T03:40:01.917Z,11.98
2019-05-29T03:41:02.563Z,12.07
2019-05-29T03:43:02.202Z,12.01
2019-05-29T03:45:03.680Z,11.96
2019-05-29T03:46:03.506Z,12.02
2019-05-29T03:54:02.539Z,11.91
2019-05-29T03:55:02.974Z,11.79
2019-05-29T03:57:03.235Z,11.86
2019-05-29T03:58:02.455Z,11.86
2019-05-29T04:04:03.655Z,11.94
2019-05-29T04:05:04.289Z,11.98
2019-05-29T04:23:04.117Z,11.99
2019-05-29T04:52:59.676Z,12.19
2019-05-29T04:53:59.706Z,12.19
2019-05-29T04:54:59.759Z,12.20
2019-05-29T04:56:59.795Z,12.28
2019-05-29T04:58:00.563Z,12.24
2019-05-29T04:59:00.083Z,12.23
2019-05-29T05:01:00.654Z,12.29
2019-05-29T05:03:00.406Z,12.34
2019-05-29T05:04:00.442Z,12.31
2019-05-29T05:05:02.368Z,12.34
2019-05-29T05:06:00.500Z,12.38
2019-05-29T05:10:00.421Z,12.47
2019-05-29T05:11:01.467Z,12.52
2019-05-29T05:12:01.368Z,12.52
2019-05-29T05:15:00.377Z,12.59
2019-05-29T05:17:00.435Z,12.56
2019-05-29T05:18:00.464Z,12.62
2019-05-29T05:19:00.497Z,12.57
2019-05-29T05:20:01.423Z,12.70
2019-05-29T05:21:01.272Z,12.64
2019-05-29T05:22:00.792Z,12.68
2019-05-29T05:23:00.820Z,12.72
2019-05-29T05:24:00.655Z,12.72
2019-05-29T05:28:01.284Z,12.70
2019-05-29T05:30:01.449Z,12.68
2019-05-29T05:31:01.477Z,12.68
2019-05-29T05:32:01.308Z,12.74
2019-05-29T05:33:00.930Z,12.75
2019-05-29T05:40:01.969Z,12.89
2019-05-29T05:43:01.233Z,12.93
2019-05-29T05:44:01.271Z,12.89
2019-05-29T05:45:01.510Z,12.77
2019-05-29T05:46:01.310Z,12.93
2019-05-29T05:47:01.344Z,13.19
2019-05-29T05:48:01.395Z,13.26
2019-05-29T05:49:01.631Z,13.23
2019-05-29T05:50:01.880Z,13.41
2019-05-29T05:52:01.526Z,13.48
2019-05-29T05:54:01.579Z,13.64
2019-05-29T05:55:01.615Z,13.70
2019-05-29T05:56:01.645Z,13.67
2019-05-29T05:57:01.652Z,13.60
2019-05-29T05:59:01.738Z,13.55
2019-05-29T06:00:01.974Z,13.57
2019-05-29T06:02:01.871Z,13.30
2019-05-29T06:03:01.842Z,13.36
2019-05-29T06:04:01.898Z,13.33
2019-05-29T06:05:02.129Z,13.42
2019-05-29T06:06:02.264Z,13.45
2019-05-29T06:07:01.990Z,13.48
2019-05-29T06:08:02.021Z,13.54
2019-05-29T06:10:02.288Z,13.38
2019-05-29T06:12:02.148Z,13.38
2019-05-29T06:13:02.155Z,13.36
2019-05-29T06:14:02.209Z,13.39
2019-05-29T06:15:02.445Z,13.33
2019-05-29T06:16:02.274Z,13.52
2019-05-29T06:17:02.306Z,13.69
2019-05-29T06:18:19.902Z,13.91
2019-05-29T06:19:02.569Z,13.91
2019-05-29T06:20:02.377Z,14.06
2019-05-29T06:21:02.461Z,14.12
2019-05-29T06:22:02.440Z,14.09
2019-05-29T06:23:05.093Z,14.27
2019-05-29T06:24:02.502Z,14.21
2019-05-29T06:25:02.536Z,14.18
2019-05-29T06:26:02.618Z,14.33
2019-05-29T06:27:02.612Z,14.28
2019-05-29T06:28:02.633Z,14.46
2019-05-29T06:29:02.662Z,14.43
2019-05-29T06:30:03.549Z,14.51
2019-05-29T06:31:02.735Z,14.69
2019-05-29T06:32:02.766Z,14.86
2019-05-29T06:33:02.817Z,14.91
2019-05-29T06:34:03.833Z,15.02
2019-05-29T06:35:02.904Z,15.03
2019-05-29T06:36:02.888Z,15.23
2019-05-29T06:37:02.919Z,15.32
2019-05-29T06:38:02.951Z,15.21
2019-05-29T06:39:02.986Z,15.32
2019-05-29T06:40:03.016Z,15.21
2019-05-29T06:41:03.051Z,15.38
2019-05-29T06:42:03.078Z,15.44
2019-05-29T06:43:03.113Z,15.50
2019-05-29T06:44:03.145Z,15.56
2019-05-29T06:45:03.603Z,15.51
2019-05-29T06:46:03.210Z,15.50
2019-05-29T06:47:03.245Z,15.53
2019-05-29T06:48:03.282Z,15.65
2019-05-29T06:49:03.359Z,15.72
2019-05-29T06:50:03.342Z,15.50
2019-05-29T06:51:03.375Z,15.57
2019-05-29T06:52:03.407Z,15.62
2019-05-29T06:53:03.441Z,15.60
2019-05-29T06:54:03.489Z,15.80
2019-05-29T06:55:03.507Z,15.96
2019-05-29T06:56:03.910Z,16.12
2019-05-29T06:57:03.576Z,16.34
2019-05-29T06:58:03.633Z,16.24
2019-05-29T06:59:03.637Z,16.09
2019-05-29T07:00:03.683Z,15.94
2019-05-29T07:01:03.703Z,15.60
2019-05-29T07:02:03.738Z,15.49
2019-05-29T07:03:03.771Z,15.44
2019-05-29T07:04:11.719Z,15.35
2019-05-29T07:05:03.835Z,15.27
2019-05-29T07:06:03.885Z,15.20
2019-05-29T07:07:03.901Z,15.14
2019-05-29T07:08:18.687Z,15.11
2019-05-29T07:09:03.968Z,15.19
2019-05-29T07:10:04.002Z,15.27
2019-05-29T07:11:04.035Z,15.21
2019-05-29T07:12:04.091Z,15.19
2019-05-29T07:13:04.100Z,15.29
2019-05-29T07:14:04.137Z,15.32
2019-05-29T07:15:04.166Z,15.23
2019-05-29T07:16:04.198Z,15.17
2019-05-29T07:17:04.232Z,15.14
2019-05-29T07:18:04.264Z,15.25
2019-05-29T07:20:04.465Z,15.11
2019-05-29T07:21:04.362Z,15.23
2019-05-29T07:22:04.395Z,15.25
2019-05-29T07:23:04.432Z,15.16
2019-05-29T07:24:04.461Z,15.16
2019-05-29T07:25:04.493Z,15.13
2019-05-29T07:26:04.525Z,15.20
2019-05-29T07:27:04.565Z,15.19
2019-05-29T07:28:04.590Z,15.16
2019-05-29T07:29:08.290Z,15.16
2019-05-29T07:30:04.654Z,15.23
2019-05-29T07:31:04.689Z,15.19
2019-05-29T07:32:04.718Z,15.13
2019-05-29T07:33:04.752Z,15.21
2019-05-29T07:34:04.783Z,15.14
2019-05-29T07:35:04.844Z,15.16
2019-05-29T07:36:04.847Z,15.28
2019-05-29T07:37:04.881Z,15.23
2019-05-29T07:38:04.924Z,15.11
2019-05-29T07:39:04.946Z,15.23
2019-05-29T07:40:04.978Z,15.41
2019-05-29T07:41:05.012Z,15.41
2019-05-29T07:42:05.043Z,15.54
2019-05-29T07:43:05.074Z,15.74
2019-05-29T07:44:05.104Z,15.97
2019-05-29T07:45:05.138Z,16.08
2019-05-29T07:46:05.171Z,16.28
2019-05-29T07:47:05.203Z,16.34
2019-05-29T07:48:05.234Z,16.35
2019-05-29T07:49:05.267Z,16.57
2019-05-29T07:50:05.300Z,16.61
2019-05-29T07:51:07.319Z,16.70
2019-05-29T07:52:05.372Z,16.83
2019-05-29T07:53:05.398Z,16.79
2019-05-29T07:54:05.482Z,16.41
2019-05-29T07:55:05.465Z,16.42
2019-05-29T07:56:21.388Z,16.25
2019-05-29T07:57:05.536Z,16.28
2019-05-29T07:58:05.564Z,16.43
2019-05-29T07:59:05.597Z,16.57
2019-05-29T08:00:05.959Z,16.81
2019-05-29T08:01:13.247Z,17.03
2019-05-29T08:02:05.724Z,17.25
2019-05-29T08:03:05.755Z,17.51
2019-05-29T08:04:05.765Z,17.58
2019-05-29T08:05:05.821Z,17.84
2019-05-29T08:06:05.834Z,18.11
2019-05-29T08:07:05.867Z,18.10
2019-05-29T08:08:05.930Z,18.18
2019-05-29T08:09:06.465Z,18.00
2019-05-29T08:10:05.972Z,18.11
2019-05-29T08:11:06.005Z,18.50
2019-05-29T08:12:06.039Z,18.76
2019-05-29T08:13:06.110Z,18.88
2019-05-29T08:14:06.106Z,19.13
2019-05-29T08:15:06.141Z,19.40
2019-05-29T08:16:06.175Z,19.13
2019-05-29T08:17:06.210Z,19.25
2019-05-29T08:18:06.266Z,19.36
2019-05-29T08:19:08.079Z,19.31
2019-05-29T08:20:07.657Z,19.21
2019-05-29T08:21:06.349Z,18.92
2019-05-29T08:22:06.385Z,19.04
2019-05-29T08:25:06.524Z,18.63
2019-05-29T08:26:07.464Z,18.50
2019-05-29T08:27:06.787Z,18.47
2019-05-29T08:28:07.511Z,18.66
2019-05-29T08:29:06.661Z,18.90
2019-05-29T08:32:07.166Z,18.73
2019-05-29T08:33:07.319Z,18.15
2019-05-29T08:35:06.878Z,17.72
2019-05-29T08:41:08.199Z,17.12
2019-05-29T08:52:11.805Z,17.63
2019-05-29T08:59:10.718Z,19.00
2019-05-29T09:00:07.726Z,19.23
2019-05-29T09:01:07.760Z,19.59
2019-05-29T09:04:08.101Z,20.18
2019-05-29T09:05:07.908Z,20.16
2019-05-29T09:06:09.612Z,20.50
2019-05-29T09:07:07.998Z,20.36
2019-05-29T09:08:08.032Z,20.05
2019-05-29T09:09:08.065Z,19.76
2019-05-29T09:10:08.106Z,19.55
2019-05-29T09:11:08.118Z,19.76
2019-05-29T09:12:08.156Z,19.71
2019-05-29T09:13:08.189Z,19.39
2019-05-29T09:14:08.225Z,19.46
2019-05-29T09:15:09.089Z,19.41
2019-05-29T09:16:08.300Z,19.25
2019-05-29T09:17:08.597Z,19.18
2019-05-29T09:18:08.373Z,19.06
2019-05-29T09:19:08.409Z,19.18
2019-05-29T09:20:25.510Z,19.59
2019-05-29T09:21:08.485Z,19.84
2019-05-29T09:22:08.519Z,19.61
2019-05-29T09:23:08.556Z,19.37
2019-05-29T09:24:08.591Z,19.37
2019-05-29T09:25:08.664Z,19.77
2019-05-29T09:26:15.733Z,19.78
2019-05-29T09:27:08.703Z,19.94
2019-05-29T09:28:08.738Z,20.38
2019-05-29T09:29:08.776Z,20.02
2019-05-29T09:30:08.812Z,20.21
2019-05-29T09:31:08.850Z,20.33
2019-05-29T09:32:08.885Z,20.64
2019-05-29T09:33:08.923Z,20.87
2019-05-29T09:34:09.020Z,21.21
2019-05-29T09:35:08.997Z,21.17
2019-05-29T09:36:09.035Z,21.22
2019-05-29T09:37:09.072Z,21.10
2019-05-29T09:38:09.110Z,21.19
2019-05-29T09:39:09.149Z,21.32
2019-05-29T09:40:09.182Z,21.12
2019-05-29T09:41:09.220Z,20.47
2019-05-29T09:42:09.261Z,20.02
2019-05-29T09:43:09.295Z,19.84
2019-05-29T09:44:09.369Z,19.68
2019-05-29T09:45:09.572Z,19.46
2019-05-29T09:46:09.408Z,19.62
2019-05-29T09:47:09.647Z,19.55
2019-05-29T09:48:09.531Z,19.63
2019-05-29T09:49:09.519Z,19.74
2019-05-29T09:50:09.555Z,19.87
2019-05-29T09:51:20.537Z,20.06
2019-05-29T09:52:09.630Z,20.24
2019-05-29T09:53:09.667Z,20.47
2019-05-29T09:54:09.745Z,20.79
2019-05-29T09:55:09.740Z,21.21
2019-05-29T09:56:09.779Z,21.27
2019-05-29T09:57:09.814Z,21.37
2019-05-29T09:58:09.851Z,21.91
2019-05-29T09:59:09.888Z,21.86
2019-05-29T10:00:09.928Z,21.42
2019-05-29T10:01:22.712Z,21.62
2019-05-29T10:02:10.009Z,21.61
2019-05-29T10:03:10.036Z,21.32
2019-05-29T10:04:10.074Z,20.21
2019-05-29T10:05:10.111Z,19.83
2019-05-29T10:06:10.150Z,20.13
2019-05-29T10:07:10.186Z,20.74
2019-05-29T10:08:10.222Z,20.67
2019-05-29T10:09:10.262Z,20.70
2019-05-29T10:10:10.298Z,21.32
2019-05-29T10:11:11.133Z,21.59
2019-05-29T10:12:10.374Z,22.00
2019-05-29T10:13:10.440Z,22.03
2019-05-29T10:14:10.451Z,22.10
2019-05-29T10:15:10.488Z,22.05
2019-05-29T10:16:10.529Z,21.59
2019-05-29T10:17:12.410Z,21.53
2019-05-29T10:18:30.455Z,21.22
2019-05-29T10:19:10.643Z,20.62
2019-05-29T10:20:10.681Z,20.61
2019-05-29T10:21:10.718Z,20.54
2019-05-29T10:22:10.756Z,20.54
2019-05-29T10:23:10.794Z,20.20
2019-05-29T10:24:10.830Z,20.33
2019-05-29T10:25:10.869Z,20.36
2019-05-29T10:26:10.907Z,20.11
2019-05-29T10:27:10.944Z,20.01
2019-05-29T10:28:10.981Z,19.98
2019-05-29T10:29:11.082Z,19.98
2019-05-29T10:30:11.056Z,20.06
2019-05-29T10:31:11.093Z,20.48
2019-05-29T10:32:11.132Z,20.99
2019-05-29T10:33:11.168Z,21.09
2019-05-29T10:34:11.408Z,20.80
2019-05-29T10:35:11.243Z,20.77
2019-05-29T10:36:11.278Z,20.80
2019-05-29T10:37:11.320Z,20.98
2019-05-29T10:38:11.355Z,21.19
2019-05-29T10:39:12.907Z,21.28
2019-05-29T10:40:11.434Z,21.42
2019-05-29T10:41:11.466Z,21.72
2019-05-29T10:42:11.504Z,22.05
2019-05-29T10:43:11.542Z,21.91
2019-05-29T10:44:12.855Z,21.90
2019-05-29T10:45:11.617Z,21.82
2019-05-29T10:46:11.656Z,21.69
2019-05-29T10:47:11.691Z,21.24
2019-05-29T10:48:11.729Z,20.61
2019-05-29T10:49:11.784Z,20.11
2019-05-29T10:50:11.841Z,20.21
2019-05-29T10:51:11.842Z,20.29
2019-05-29T10:52:16.616Z,20.21
2019-05-29T10:53:11.915Z,20.32
2019-05-29T10:54:11.955Z,20.35
2019-05-29T10:55:11.991Z,20.26
2019-05-29T10:56:12.030Z,19.74
2019-05-29T10:57:12.070Z,20.05
2019-05-29T10:58:12.103Z,20.13
2019-05-29T10:59:12.141Z,19.96
2019-05-29T11:00:12.177Z,19.87
2019-05-29T11:01:12.215Z,19.74
2019-05-29T11:02:12.298Z,19.44
2019-05-29T11:03:12.291Z,19.22
2019-05-29T11:04:12.326Z,19.21
2019-05-29T11:05:12.364Z,19.33
2019-05-29T11:06:12.410Z,19.32
2019-05-29T11:07:12.439Z,19.43
2019-05-29T11:08:12.473Z,19.47
2019-05-29T11:09:12.510Z,19.55
2019-05-29T11:10:13.588Z,19.69
2019-05-29T11:11:12.585Z,19.83
2019-05-29T11:12:12.619Z,19.98
2019-05-29T11:13:12.654Z,20.16
2019-05-29T11:14:12.702Z,20.01
2019-05-29T11:15:21.360Z,20.03
2019-05-29T11:16:12.991Z,19.83
2019-05-29T11:17:12.801Z,19.98
2019-05-29T11:18:12.836Z,20.06
2019-05-29T11:19:12.874Z,20.26
2019-05-29T11:20:12.910Z,20.69
2019-05-29T11:21:12.945Z,20.87
2019-05-29T11:22:25.786Z,21.10
2019-05-29T11:23:13.019Z,21.27
2019-05-29T11:24:13.058Z,21.35
2019-05-29T11:25:22.628Z,21.29
2019-05-29T11:26:13.129Z,21.69
2019-05-29T11:27:13.165Z,22.25
2019-05-29T11:28:13.202Z,22.14
2019-05-29T11:29:13.241Z,22.45
2019-05-29T11:30:13.278Z,22.20
2019-05-29T11:31:13.317Z,22.43
2019-05-29T11:32:13.353Z,23.31
2019-05-29T11:33:13.388Z,23.63
2019-05-29T11:34:13.651Z,24.42
2019-05-29T11:35:13.491Z,24.65
2019-05-29T11:36:13.901Z,24.98
2019-05-29T11:37:13.771Z,24.85
2019-05-29T11:38:13.913Z,24.31
2019-05-29T11:39:13.947Z,24.77
2019-05-29T11:40:14.264Z,25.61
2019-05-29T11:41:25.265Z,24.77
2019-05-29T11:42:26.993Z,24.78
2019-05-29T11:44:13.844Z,24.47
2019-05-29T11:45:13.854Z,24.31
2019-05-29T11:46:16.922Z,24.32
2019-05-29T11:47:13.937Z,24.52
2019-05-29T11:48:15.189Z,25.09
2019-05-29T11:49:14.041Z,24.90
2019-05-29T11:51:14.098Z,24.61
2019-05-29T11:52:24.486Z,25.00
2019-05-29T11:53:14.200Z,24.49
2019-05-29T11:54:14.241Z,24.47
2019-05-29T11:55:14.493Z,23.88
2019-05-29T11:56:15.639Z,23.68
2019-05-29T11:57:14.365Z,24.46
2019-05-29T11:58:30.106Z,24.96
2019-05-29T11:59:14.421Z,24.45
2019-05-29T12:00:20.099Z,25.06
2019-05-29T12:01:14.505Z,25.45
2019-05-29T12:02:14.567Z,25.18
2019-05-29T12:03:14.610Z,24.85
2019-05-29T12:04:25.394Z,24.06
2019-05-29T12:05:14.689Z,23.55
2019-05-29T12:06:14.781Z,23.00
2019-05-29T12:07:14.750Z,22.62
2019-05-29T12:08:14.791Z,22.67
2019-05-29T12:09:29.019Z,22.60
2019-05-29T12:10:15.124Z,22.40
2019-05-29T12:11:14.922Z,22.20
2019-05-29T12:12:15.181Z,22.18
2019-05-29T12:13:15.225Z,22.22
2019-05-29T12:15:17.603Z,22.10
2019-05-29T12:16:15.114Z,22.14
2019-05-29T12:17:15.153Z,22.03
2019-05-29T12:18:23.401Z,22.15
2019-05-29T12:19:15.231Z,22.20
2019-05-29T12:20:28.396Z,22.35
2019-05-29T12:21:15.310Z,21.75
2019-05-29T12:22:15.380Z,21.53
2019-05-29T12:23:25.940Z,21.58
2019-05-29T12:24:15.654Z,21.67
2019-05-29T12:25:16.911Z,21.28
2019-05-29T12:26:22.211Z,21.54
2019-05-29T12:27:15.552Z,22.00
2019-05-29T12:28:15.585Z,22.18
2019-05-29T12:29:15.629Z,22.25
2019-05-29T12:30:15.664Z,22.17
2019-05-29T12:31:15.705Z,22.68
2019-05-29T12:32:15.761Z,23.19
2019-05-29T12:33:15.786Z,23.50
2019-05-29T12:34:19.060Z,23.47
2019-05-29T12:35:15.883Z,23.72
2019-05-29T12:36:15.897Z,23.75
2019-05-29T12:37:15.958Z,23.73
2019-05-29T12:38:15.983Z,23.55
2019-05-29T12:39:16.016Z,23.28
2019-05-29T12:40:16.055Z,23.38
2019-05-29T12:41:16.101Z,23.20
2019-05-29T12:42:16.136Z,23.15
2019-05-29T12:43:26.783Z,23.28
2019-05-29T12:44:16.212Z,23.40
2019-05-29T12:45:16.257Z,23.02
2019-05-29T12:46:16.293Z,22.98
2019-05-29T12:47:16.344Z,23.15
2019-05-29T12:48:16.992Z,23.57
2019-05-29T12:49:16.411Z,24.16
2019-05-29T12:50:16.478Z,24.16
2019-05-29T12:51:16.694Z,24.35
2019-05-29T12:52:16.553Z,24.40
2019-05-29T12:53:29.541Z,24.47
2019-05-29T12:55:16.650Z,25.14
2019-05-29T12:56:16.689Z,24.99
2019-05-29T12:57:16.752Z,24.80
2019-05-29T12:58:16.771Z,24.90
2019-05-29T12:59:16.835Z,24.28
2019-05-29T13:00:16.850Z,24.39
2019-05-29T13:01:16.917Z,25.00
2019-05-29T13:02:16.964Z,25.40
2019-05-29T13:03:16.972Z,25.77
2019-05-29T13:04:17.010Z,26.01
2019-05-29T13:05:20.406Z,26.45
2019-05-29T13:06:17.092Z,26.70
2019-05-29T13:07:17.135Z,26.43
2019-05-29T13:08:17.174Z,26.40
2019-05-29T13:09:17.215Z,26.63
2019-05-29T13:10:29.938Z,26.94
2019-05-29T13:11:17.299Z,26.70
2019-05-29T13:12:17.341Z,27.17
2019-05-29T13:13:17.381Z,28.21
2019-05-29T13:14:17.424Z,29.02
2019-05-29T13:15:17.467Z,28.33
2019-05-29T13:16:17.507Z,28.18
2019-05-29T13:17:17.551Z,27.85
2019-05-29T13:18:17.592Z,27.19
2019-05-29T13:19:17.638Z,26.30
2019-05-29T13:20:21.808Z,25.05
2019-05-29T13:21:17.948Z,24.58
2019-05-29T13:22:17.786Z,24.20
2019-05-29T13:23:17.823Z,24.13
2019-05-29T13:24:18.076Z,23.72
2019-05-29T13:25:17.890Z,24.32
2019-05-29T13:26:17.933Z,25.83
2019-05-29T13:27:17.977Z,28.12
2019-05-29T13:28:18.018Z,29.43
2019-05-29T13:30:18.340Z,26.99
2019-05-29T13:31:18.182Z,27.75
2019-05-29T13:32:18.191Z,28.31
2019-05-29T13:33:18.246Z,27.55
2019-05-29T13:34:19.112Z,26.94
2019-05-29T13:38:18.483Z,24.98
2019-05-29T13:39:18.500Z,25.39
2019-05-29T13:40:18.563Z,25.67
2019-05-29T13:41:18.584Z,25.24
2019-05-29T13:42:18.629Z,25.80
2019-05-29T13:43:18.673Z,27.13
2019-05-29T13:44:19.453Z,27.31
2019-05-29T13:45:18.823Z,26.95
2019-05-29T13:47:19.069Z,25.62
2019-05-29T13:48:18.885Z,25.51
2019-05-29T13:49:18.937Z,26.91
2019-05-29T13:50:18.993Z,26.73
2019-05-29T13:51:19.016Z,26.35
2019-05-29T13:52:19.057Z,25.80
2019-05-29T13:53:19.124Z,25.09
2019-05-29T13:54:19.143Z,25.14
2019-05-29T13:55:19.196Z,25.27
2019-05-29T13:56:19.246Z,26.57
2019-05-29T13:57:19.267Z,28.24
2019-05-29T13:58:19.512Z,28.21
2019-05-29T13:59:19.356Z,29.23
2019-05-29T14:00:33.090Z,30.61
2019-05-29T14:01:19.463Z,30.55
2019-05-29T14:02:19.510Z,30.15
2019-05-29T14:04:19.596Z,28.83
2019-05-29T14:05:19.613Z,28.49
2019-05-29T14:06:19.656Z,29.23
2019-05-29T14:07:19.702Z,28.90
2019-05-29T14:08:19.755Z,29.37
2019-05-29T14:09:19.808Z,30.23
2019-05-29T14:10:19.850Z,29.79
2019-05-29T14:11:19.900Z,30.70
2019-05-29T14:12:19.920Z,31.63
2019-05-29T14:13:19.990Z,32.37
2019-05-29T14:14:20.018Z,32.55
2019-05-29T14:18:20.192Z,31.14
2019-05-29T14:19:20.290Z,31.58
2019-05-29T14:20:20.285Z,31.88
2019-05-29T14:21:20.334Z,32.72
2019-05-29T14:22:20.380Z,32.65
2019-05-29T14:23:20.429Z,32.11
2019-05-29T14:24:29.164Z,32.44
2019-05-29T14:25:20.528Z,31.61
2019-05-29T14:28:20.662Z,29.63
2019-05-29T14:29:20.708Z,29.02
2019-05-29T14:30:20.758Z,28.95
2019-05-29T14:31:20.804Z,27.50
2019-05-29T14:32:20.951Z,28.70
2019-05-29T14:33:20.897Z,29.30
2019-05-29T14:34:20.945Z,30.02
2019-05-29T14:35:20.992Z,31.43
2019-05-29T14:36:21.037Z,32.40
2019-05-29T14:37:21.084Z,33.29
2019-05-29T14:38:21.131Z,33.71
2019-05-29T14:39:21.179Z,34.44
2019-05-29T14:40:21.248Z,34.87
2019-05-29T14:41:21.280Z,34.65
2019-05-29T14:42:21.322Z,34.64
2019-05-29T14:43:21.367Z,34.73
2019-05-29T14:44:21.417Z,33.07
2019-05-29T14:45:21.477Z,32.59
2019-05-29T14:46:21.511Z,33.21
2019-05-29T14:47:22.169Z,32.63
2019-05-29T14:48:21.611Z,33.15
2019-05-29T14:49:21.655Z,33.39
2019-05-29T14:50:21.710Z,33.69
2019-05-29T14:51:21.754Z,33.59
2019-05-29T14:52:21.809Z,33.78
2019-05-29T14:53:21.850Z,34.19
2019-05-29T14:54:21.901Z,34.37
2019-05-29T14:55:21.948Z,34.12
2019-05-29T14:56:22.014Z,34.52
2019-05-29T14:57:26.079Z,34.69
2019-05-29T14:58:22.095Z,35.04
2019-05-29T14:59:22.142Z,34.91
2019-05-29T15:00:25.523Z,34.80
2019-05-29T15:01:22.238Z,34.78
2019-05-29T15:02:24.174Z,34.03
2019-05-29T15:03:22.364Z,33.06
2019-05-29T15:04:22.385Z,29.83
2019-05-29T15:05:22.432Z,30.05
2019-05-29T15:06:22.480Z,30.13
2019-05-29T15:07:23.043Z,29.65
2019-05-29T15:08:22.575Z,30.55
2019-05-29T15:09:22.623Z,31.26
2019-05-29T15:10:27.434Z,30.51
2019-05-29T15:11:22.719Z,30.46
2019-05-29T15:12:22.765Z,30.92
2019-05-29T15:13:22.813Z,31.65
2019-05-29T15:14:22.861Z,31.31
2019-05-29T15:15:22.908Z,32.40
2019-05-29T15:16:22.961Z,32.41
2019-05-29T15:20:23.143Z,33.98
2019-05-29T15:21:23.192Z,33.32
2019-05-29T15:22:24.654Z,32.62
2019-05-29T15:25:24.498Z,32.52
2019-05-29T15:26:23.434Z,32.99
2019-05-29T15:28:23.524Z,31.63
2019-05-29T15:29:23.647Z,32.32
2019-05-29T15:30:24.073Z,31.63
2019-05-29T15:31:24.898Z,30.01
2019-05-29T15:32:23.918Z,29.97
2019-05-29T15:33:23.760Z,29.33
2019-05-29T15:34:23.833Z,27.97
2019-05-29T15:35:23.854Z,27.43
2019-05-29T15:36:23.900Z,26.73
2019-05-29T15:37:23.946Z,26.44
2019-05-29T15:38:23.992Z,27.19
2019-05-29T15:39:24.038Z,27.85
2019-05-29T15:40:24.083Z,28.61
2019-05-29T15:41:24.662Z,29.53
2019-05-29T15:42:24.173Z,30.19
2019-05-29T15:43:24.240Z,31.23
2019-05-29T15:46:24.785Z,31.29
2019-05-29T15:47:24.424Z,30.67
2019-05-29T15:49:24.487Z,29.85
2019-05-29T15:50:24.558Z,29.41
2019-05-29T15:51:24.611Z,30.42
2019-05-29T15:52:24.933Z,30.53
2019-05-29T15:53:25.301Z,30.46
2019-05-29T15:54:24.949Z,29.94
2019-05-29T15:55:33.942Z,30.29
2019-05-29T15:59:24.944Z,30.51
2019-05-29T16:00:24.987Z,30.29
2019-05-29T16:01:25.040Z,30.88
2019-05-29T16:02:25.079Z,31.31
2019-05-29T16:03:25.135Z,31.61
2019-05-29T16:04:25.173Z,30.95
2019-05-29T16:05:25.216Z,31.28
2019-05-29T16:06:25.268Z,30.77
2019-05-29T16:07:25.304Z,30.65
2019-05-29T16:08:25.351Z,30.07
2019-05-29T16:09:25.431Z,30.17
2019-05-29T16:10:25.440Z,30.22
2019-05-29T16:11:25.853Z,30.84
2019-05-29T16:12:29.451Z,31.04
2019-05-29T16:13:25.587Z,29.55
2019-05-29T16:14:25.619Z,29.79
2019-05-29T16:15:25.665Z,29.34
2019-05-29T16:16:25.709Z,28.31
2019-05-29T16:17:25.776Z,28.74
2019-05-29T16:18:29.161Z,29.46
2019-05-29T16:19:25.845Z,29.30
2019-05-29T16:20:25.892Z,29.51
2019-05-29T16:21:25.934Z,28.44
2019-05-29T16:22:25.981Z,28.33
2019-05-29T16:23:34.748Z,28.89
2019-05-29T16:24:26.068Z,29.58
2019-05-29T16:25:39.727Z,29.94
2019-05-29T16:26:26.158Z,30.23
2019-05-29T16:27:30.637Z,30.51
2019-05-29T16:28:26.245Z,30.86
2019-05-29T16:29:26.290Z,31.04
2019-05-29T16:30:26.335Z,30.60
2019-05-29T16:31:26.381Z,30.60
2019-05-29T16:32:26.423Z,30.51
2019-05-29T16:33:26.468Z,30.17
2019-05-29T16:34:26.514Z,30.16
2019-05-29T16:35:26.559Z,30.49
2019-05-29T16:36:26.601Z,29.39
2019-05-29T16:37:26.648Z,29.02
2019-05-29T16:38:26.690Z,27.22
2019-05-29T16:39:26.736Z,27.93
2019-05-29T16:40:26.783Z,27.28
2019-05-29T16:41:26.822Z,26.43
2019-05-29T16:42:26.869Z,26.85
2019-05-29T16:43:26.911Z,27.79
2019-05-29T16:44:29.482Z,28.43
2019-05-29T16:45:27.200Z,28.98
2019-05-29T16:46:27.044Z,29.08
2019-05-29T16:47:27.091Z,29.41
2019-05-29T16:48:27.130Z,28.95
2019-05-29T16:49:27.176Z,29.15
2019-05-29T16:50:27.219Z,29.43
2019-05-29T16:51:27.272Z,29.36
2019-05-29T16:52:27.306Z,29.14
2019-05-29T16:53:27.350Z,29.33
2019-05-29T16:54:27.394Z,28.31
2019-05-29T16:55:27.442Z,28.78
2019-05-29T16:56:27.507Z,28.55
2019-05-29T16:57:27.524Z,28.48
2019-05-29T16:58:27.795Z,28.48
2019-05-29T17:00:28.867Z,29.04
2019-05-29T17:02:25.497Z,28.78
2019-05-29T17:03:25.517Z,28.02
2019-05-29T17:05:25.601Z,28.14
2019-05-29T17:06:25.647Z,27.94
2019-05-29T17:07:25.713Z,27.43
2019-05-29T17:08:25.728Z,27.40
2019-05-29T17:09:25.778Z,27.34
2019-05-29T17:10:25.813Z,26.05
2019-05-29T17:12:25.897Z,25.45
2019-05-29T17:13:25.972Z,25.61
2019-05-29T17:14:25.983Z,25.88
2019-05-29T17:16:26.101Z,26.70
2019-05-29T17:17:26.134Z,27.21
2019-05-29T17:19:26.296Z,27.02
2019-05-29T17:21:28.871Z,26.30
2019-05-29T17:22:28.884Z,26.55
2019-05-29T17:23:30.569Z,26.69
2019-05-29T17:25:41.626Z,26.35
2019-05-29T17:26:41.647Z,25.51
2019-05-29T17:27:41.685Z,24.95
2019-05-29T17:28:41.722Z,23.61
2019-05-29T17:29:41.788Z,23.25
2019-05-29T17:30:44.935Z,23.09
2019-05-29T17:32:41.893Z,22.67
2019-05-29T17:33:42.154Z,22.67
2019-05-29T17:34:41.963Z,22.68
2019-05-29T17:36:42.042Z,22.62
2019-05-29T17:37:42.082Z,22.49
2019-05-29T17:38:42.341Z,22.37
2019-05-29T17:39:42.160Z,22.43
2019-05-29T17:40:42.198Z,22.30
2019-05-29T17:41:42.238Z,21.69